Time;durP1;ratioP1;P1;durP2;ratioP2;P2;SDS_P1;SDS_P2;PMS_P1;PMS_P2;Temp;Humidity;BMP_temperature;BMP_pressure;BME280_temperature;BME280_humidity;BME280_pressure;Samples;Min_cycle;Max_cycle;Signal;HPM_P1;HPM_P2
2023/03/08 00:01:12;;;;;;;;;;;19.90;58.80;;;;;;5036759;28;892;-69
2023/03/08 00:03:37;;;;;;;;;;;19.90;58.80;;;;;;5043282;28;1348;-69
2023/03/08 00:06:03;;;;;;;;;;;19.90;58.80;;;;;;5038174;28;1930;-68
2023/03/08 00:08:29;;;;;;;;;;;19.90;58.90;;;;;;5037894;28;1631;-68
2023/03/08 00:10:54;;;;;;;;;;;19.90;58.90;;;;;;5047018;28;881;-68
2023/03/08 00:13:20;;;;;;;;;;;19.90;58.90;;;;;;5037863;28;1229;-68
2023/03/08 00:15:45;;;;;;;;;;;19.90;59.00;;;;;;5047253;28;836;-69
2023/03/08 00:18:11;;;;;;;;;;;19.80;58.90;;;;;;5039162;28;928;-69
2023/03/08 00:20:36;;;;;;;;;;;19.80;59.00;;;;;;5038675;28;1049;-68
2023/03/08 00:23:02;;;;;;;;;;;19.80;59.00;;;;;;5037168;28;1306;-69
2023/03/08 00:25:27;;;;;;;;;;;19.80;59.00;;;;;;5037065;28;872;-69
2023/03/08 00:27:53;;;;;;;;;;;19.80;59.00;;;;;;5040501;28;1906;-69
2023/03/08 00:30:18;;;;;;;;;;;19.80;59.00;;;;;;5037118;28;1274;-69
2023/03/08 00:32:43;;;;;;;;;;;19.70;59.00;;;;;;5041233;28;1335;-69
2023/03/08 00:35:09;;;;;;;;;;;19.70;59.00;;;;;;5042810;28;863;-69
2023/03/08 00:37:34;;;;;;;;;;;19.70;59.10;;;;;;5036903;28;1454;-69
2023/03/08 00:40:00;;;;;;;;;;;19.70;59.10;;;;;;5040974;28;1358;-69
2023/03/08 00:42:25;;;;;;;;;;;19.70;59.10;;;;;;5042201;28;1369;-69
2023/03/08 00:44:51;;;;;;;;;;;19.70;59.10;;;;;;5039036;28;858;-69
2023/03/08 00:47:16;;;;;;;;;;;19.70;59.20;;;;;;5037492;28;1894;-69
2023/03/08 00:49:42;;;;;;;;;;;19.70;59.20;;;;;;5038413;28;1480;-69
2023/03/08 00:52:08;;;;;;;;;;;19.70;59.20;;;;;;5033789;28;1250;-69
2023/03/08 00:54:33;;;;;;;;;;;19.60;59.80;;;;;;5037439;28;844;-68
2023/03/08 00:56:58;;;;;;;;;;;19.60;59.20;;;;;;5037347;28;926;-68
2023/03/08 00:59:24;;;;;;;;;;;19.60;59.20;;;;;;5037721;28;1188;-69
2023/03/08 01:01:49;;;;;;;;;;;19.60;59.20;;;;;;5033412;28;1354;-68
2023/03/08 01:04:15;;;;;;;;;;;19.60;59.30;;;;;;5037886;28;884;-69
2023/03/08 01:06:42;;;;;;;;;;;19.60;59.30;;;;;;5035546;28;1961;-69
2023/03/08 01:09:08;;;;;;;;;;;19.60;59.30;;;;;;5037767;28;812;-69
2023/03/08 01:11:34;;;;;;;;;;;19.60;59.30;;;;;;5037217;28;1306;-68
2023/03/08 01:14:00;;;;;;;;;;;19.50;59.30;;;;;;5039613;28;828;-69
2023/03/08 01:16:26;;;;;;;;;;;19.50;59.30;;;;;;5043122;28;852;-69
2023/03/08 01:18:52;;;;;;;;;;;19.50;59.30;;;;;;5038180;28;871;-69
2023/03/08 01:21:18;;;;;;;;;;;19.50;59.40;;;;;;5040927;28;896;-68
2023/03/08 01:23:43;;;;;;;;;;;19.50;59.40;;;;;;5036236;28;1186;-69
2023/03/08 01:26:13;;;;;;;;;;;19.50;59.40;;;;;;5041663;28;1902;-69
2023/03/08 01:28:38;;;;;;;;;;;19.50;59.40;;;;;;5041167;28;856;-69
2023/03/08 01:31:04;;;;;;;;;;;19.50;59.40;;;;;;5036720;28;895;-69
2023/03/08 01:33:30;;;;;;;;;;;19.50;59.40;;;;;;5037215;28;1344;-68
2023/03/08 01:35:56;;;;;;;;;;;19.50;59.40;;;;;;5038927;28;844;-69
2023/03/08 01:38:21;;;;;;;;;;;19.50;59.40;;;;;;5036868;28;1512;-69
2023/03/08 01:40:47;;;;;;;;;;;19.50;59.50;;;;;;5038342;28;1306;-69
2023/03/08 01:43:22;;;;;;;;;;;19.40;59.40;;;;;;5037906;28;1610;-70
2023/03/08 01:46:06;;;;;;;;;;;19.40;59.50;;;;;;5036769;28;844;-69
2023/03/08 01:48:36;;;;;;;;;;;19.40;59.50;;;;;;5039397;28;861;-69
2023/03/08 01:51:02;;;;;;;;;;;19.40;59.50;;;;;;5037862;28;1306;-69
2023/03/08 01:53:27;;;;;;;;;;;19.40;59.50;;;;;;5023484;28;1363;-69
2023/03/08 01:55:53;;;;;;;;;;;19.40;59.50;;;;;;5037716;28;968;-69
2023/03/08 01:58:18;;;;;;;;;;;19.40;59.50;;;;;;5037877;28;803;-70
2023/03/08 02:00:44;;;;;;;;;;;19.40;59.60;;;;;;5037017;28;970;-70
2023/03/08 02:03:09;;;;;;;;;;;19.40;59.60;;;;;;5035720;28;1458;-69
2023/03/08 02:05:35;;;;;;;;;;;19.30;59.60;;;;;;5036473;28;875;-71
2023/03/08 02:08:00;;;;;;;;;;;19.30;59.60;;;;;;5036489;28;1989;-72
2023/03/08 02:10:26;;;;;;;;;;;19.30;59.60;;;;;;5039627;28;952;-69
2023/03/08 02:12:52;;;;;;;;;;;19.30;59.60;;;;;;5038214;28;1275;-69
2023/03/08 02:15:17;;;;;;;;;;;19.30;59.60;;;;;;5039717;28;951;-69
2023/03/08 02:17:43;;;;;;;;;;;19.30;59.60;;;;;;5040984;28;864;-69
2023/03/08 02:20:16;;;;;;;;;;;19.30;59.60;;;;;;5043404;28;999;-68
2023/03/08 02:22:42;;;;;;;;;;;19.30;59.60;;;;;;5040706;28;1331;-68
2023/03/08 02:25:14;;;;;;;;;;;19.30;59.60;;;;;;5043321;28;829;-68
2023/03/08 02:27:40;;;;;;;;;;;19.30;59.60;;;;;;5045901;28;1902;-68
2023/03/08 02:30:05;;;;;;;;;;;19.30;59.60;;;;;;5044313;28;864;-68
2023/03/08 02:32:31;;;;;;;;;;;19.30;59.70;;;;;;5041036;28;1265;-68
2023/03/08 02:34:56;;;;;;;;;;;19.30;59.70;;;;;;5044097;28;815;-68
2023/03/08 02:37:22;;;;;;;;;;;19.30;59.70;;;;;;5039730;28;859;-68
2023/03/08 02:39:47;;;;;;;;;;;19.30;59.70;;;;;;5040619;28;1279;-68
2023/03/08 02:42:13;;;;;;;;;;;19.20;59.70;;;;;;5047275;28;1363;-68
2023/03/08 02:44:38;;;;;;;;;;;19.20;60.30;;;;;;5037784;28;855;-68
2023/03/08 02:47:04;;;;;;;;;;;19.20;59.70;;;;;;5041944;28;1969;-69
2023/03/08 02:49:29;;;;;;;;;;;19.20;59.70;;;;;;5040129;28;1034;-69
2023/03/08 02:51:55;;;;;;;;;;;19.20;59.70;;;;;;5040430;28;1286;-68
2023/03/08 02:54:20;;;;;;;;;;;19.20;59.80;;;;;;5040105;28;1362;-69
2023/03/08 02:56:46;;;;;;;;;;;19.20;59.80;;;;;;5040393;28;913;-69
2023/03/08 02:59:11;;;;;;;;;;;19.20;59.80;;;;;;5036060;28;1270;-69
2023/03/08 03:01:37;;;;;;;;;;;19.20;59.80;;;;;;5039640;28;1359;-69
2023/03/08 03:04:02;;;;;;;;;;;19.20;59.80;;;;;;5043762;28;1194;-69
2023/03/08 03:06:28;;;;;;;;;;;19.10;59.80;;;;;;5037253;28;1906;-68
2023/03/08 03:08:53;;;;;;;;;;;19.10;59.80;;;;;;5038227;28;1291;-68
2023/03/08 03:11:19;;;;;;;;;;;19.10;59.90;;;;;;5040098;28;1022;-68
2023/03/08 03:13:45;;;;;;;;;;;19.10;59.90;;;;;;5039708;28;1271;-67
2023/03/08 03:16:11;;;;;;;;;;;19.10;59.90;;;;;;5043620;28;1010;-67
2023/03/08 03:18:36;;;;;;;;;;;19.10;59.80;;;;;;5040608;28;781;-67
2023/03/08 03:21:03;;;;;;;;;;;19.10;59.80;;;;;;5040216;28;1342;-67
2023/03/08 03:23:28;;;;;;;;;;;19.10;59.80;;;;;;5040756;28;1432;-69
2023/03/08 03:25:54;;;;;;;;;;;19.10;59.80;;;;;;5039190;28;1311;-68
2023/03/08 03:28:19;;;;;;;;;;;19.10;59.70;;;;;;5038708;28;1894;-68
2023/03/08 03:30:45;;;;;;;;;;;19.10;59.70;;;;;;5038602;28;821;-68
2023/03/08 03:33:10;;;;;;;;;;;19.10;59.70;;;;;;5040246;28;1193;-69
2023/03/08 03:35:37;;;;;;;;;;;19.10;59.70;;;;;;5037111;28;850;-69
2023/03/08 03:38:02;;;;;;;;;;;19.10;59.70;;;;;;5040519;28;1392;-68
2023/03/08 03:40:28;;;;;;;;;;;19.10;59.70;;;;;;5040062;28;1343;-68
2023/03/08 03:42:53;;;;;;;;;;;19.10;59.70;;;;;;5038958;28;1450;-68
2023/03/08 03:45:18;;;;;;;;;;;19.10;59.70;;;;;;5037731;28;882;-68
2023/03/08 03:47:44;;;;;;;;;;;19.10;59.70;;;;;;5036421;28;1906;-68
2023/03/08 03:50:10;;;;;;;;;;;19.10;59.70;;;;;;5039638;28;884;-66
2023/03/08 03:52:35;;;;;;;;;;;19.10;59.70;;;;;;5037481;28;1277;-68
2023/03/08 03:55:00;;;;;;;;;;;19.10;59.70;;;;;;5039733;28;1011;-68
2023/03/08 03:57:26;;;;;;;;;;;19.10;59.70;;;;;;5035934;28;860;-68
2023/03/08 03:59:52;;;;;;;;;;;19.10;59.70;;;;;;5039358;28;927;-68
2023/03/08 04:02:17;;;;;;;;;;;19.10;59.80;;;;;;5040346;28;1353;-68
2023/03/08 04:04:43;;;;;;;;;;;19.10;59.80;;;;;;5039091;28;908;-69
2023/03/08 04:07:09;;;;;;;;;;;19.10;59.80;;;;;;5041434;28;1902;-68
2023/03/08 04:09:34;;;;;;;;;;;19.10;59.80;;;;;;5040246;28;886;-68
2023/03/08 04:12:04;;;;;;;;;;;19.00;59.70;;;;;;5039976;28;1255;-68
2023/03/08 04:14:29;;;;;;;;;;;19.10;59.80;;;;;;5037830;28;847;-68
2023/03/08 04:16:55;;;;;;;;;;;19.00;59.80;;;;;;5041048;28;891;-68
2023/03/08 04:19:20;;;;;;;;;;;19.00;59.80;;;;;;5040599;28;904;-68
2023/03/08 04:21:46;;;;;;;;;;;19.10;59.80;;;;;;5039364;28;1236;-69
2023/03/08 04:24:11;;;;;;;;;;;19.00;59.80;;;;;;5038835;28;1515;-68
2023/03/08 04:26:37;;;;;;;;;;;19.00;59.80;;;;;;5037046;28;1959;-69
2023/03/08 04:29:04;;;;;;;;;;;19.00;59.80;;;;;;5037387;28;840;-68
2023/03/08 04:31:30;;;;;;;;;;;19.00;59.80;;;;;;5038320;28;1241;-69
2023/03/08 04:33:57;;;;;;;;;;;19.00;59.80;;;;;;5039242;28;847;-69
2023/03/08 04:36:22;;;;;;;;;;;19.00;59.80;;;;;;5037169;28;980;-69
2023/03/08 04:38:48;;;;;;;;;;;19.00;59.80;;;;;;5047852;28;1400;-69
2023/03/08 04:41:14;;;;;;;;;;;19.00;59.80;;;;;;5035774;28;1415;-73
2023/03/08 04:43:40;;;;;;;;;;;19.00;59.80;;;;;;5039533;28;1820;-70
2023/03/08 04:46:06;;;;;;;;;;;19.00;59.80;;;;;;5040075;28;2083;-68
2023/03/08 04:48:31;;;;;;;;;;;19.00;59.80;;;;;;5037216;28;1382;-68
2023/03/08 04:50:57;;;;;;;;;;;19.00;59.90;;;;;;5034887;28;985;-70
2023/03/08 04:53:23;;;;;;;;;;;19.00;59.90;;;;;;5039414;28;1279;-70
2023/03/08 04:55:49;;;;;;;;;;;19.00;59.90;;;;;;5035107;28;785;-71
2023/03/08 04:58:14;;;;;;;;;;;19.00;59.90;;;;;;5036549;28;882;-70
2023/03/08 05:00:40;;;;;;;;;;;18.90;59.90;;;;;;5039495;28;852;-70
2023/03/08 05:03:05;;;;;;;;;;;19.00;60.00;;;;;;5035898;28;1227;-70
2023/03/08 05:05:31;;;;;;;;;;;18.90;59.90;;;;;;5038724;28;824;-70
2023/03/08 05:07:58;;;;;;;;;;;18.90;59.90;;;;;;5040649;28;1902;-70
2023/03/08 05:10:24;;;;;;;;;;;19.00;60.00;;;;;;5038504;28;821;-69
2023/03/08 05:12:49;;;;;;;;;;;19.00;60.00;;;;;;5038045;28;1299;-69
2023/03/08 05:15:15;;;;;;;;;;;19.10;60.00;;;;;;5035179;28;915;-70
2023/03/08 05:17:40;;;;;;;;;;;19.20;59.80;;;;;;5035607;28;1010;-70
2023/03/08 05:20:06;;;;;;;;;;;19.40;59.60;;;;;;5045909;28;931;-69
2023/03/08 05:22:32;;;;;;;;;;;19.50;59.30;;;;;;5036318;28;1339;-69
2023/03/08 05:24:57;;;;;;;;;;;19.70;58.90;;;;;;5040644;28;805;-69
2023/03/08 05:27:22;;;;;;;;;;;19.80;58.50;;;;;;5039937;28;1905;-69
2023/03/08 05:29:50;;;;;;;;;;;20.00;58.20;;;;;;5040308;28;800;-69
2023/03/08 05:32:15;;;;;;;;;;;20.10;57.80;;;;;;5038843;28;1302;-69
2023/03/08 05:34:41;;;;;;;;;;;20.30;57.50;;;;;;5038792;28;844;-70
2023/03/08 05:37:06;;;;;;;;;;;20.50;57.10;;;;;;5037616;28;777;-69
2023/03/08 05:39:31;;;;;;;;;;;20.60;56.80;;;;;;5040076;28;1044;-69
2023/03/08 05:41:57;;;;;;;;;;;20.80;56.50;;;;;;5041362;28;1287;-69
2023/03/08 05:44:22;;;;;;;;;;;20.90;56.30;;;;;;5041181;28;776;-69
2023/03/08 05:46:51;;;;;;;;;;;21.00;56.00;;;;;;5042856;28;1955;-69
2023/03/08 05:49:16;;;;;;;;;;;21.20;55.80;;;;;;5047515;28;816;-69
2023/03/08 05:51:42;;;;;;;;;;;21.30;55.60;;;;;;5044457;28;1268;-69
2023/03/08 05:54:07;;;;;;;;;;;21.30;55.40;;;;;;5040702;28;900;-69
2023/03/08 05:56:33;;;;;;;;;;;21.40;55.20;;;;;;5043783;28;931;-69
2023/03/08 05:58:58;;;;;;;;;;;21.50;55.00;;;;;;5046860;28;1375;-69
2023/03/08 06:01:24;;;;;;;;;;;21.60;54.90;;;;;;5043232;28;837;-69
2023/03/08 06:03:51;;;;;;;;;;;21.60;54.70;;;;;;5041521;28;1023;-69
2023/03/08 06:06:16;;;;;;;;;;;21.70;54.60;;;;;;5039744;28;1906;-69
2023/03/08 06:08:42;;;;;;;;;;;21.70;54.50;;;;;;5044777;28;899;-67
2023/03/08 06:11:07;;;;;;;;;;;21.80;54.40;;;;;;5041335;28;848;-67
2023/03/08 06:13:33;;;;;;;;;;;21.80;54.30;;;;;;5041050;28;1233;-67
2023/03/08 06:15:59;;;;;;;;;;;21.90;54.20;;;;;;5050471;28;836;-67
2023/03/08 06:18:24;;;;;;;;;;;21.90;54.10;;;;;;5044274;28;908;-68
2023/03/08 06:20:56;;;;;;;;;;;21.90;54.10;;;;;;5038769;28;985;-69
2023/03/08 06:23:22;;;;;;;;;;;22.00;54.00;;;;;;5041182;28;1252;-69
2023/03/08 06:25:47;;;;;;;;;;;22.00;53.90;;;;;;5042599;28;887;-69
2023/03/08 06:28:13;;;;;;;;;;;22.00;53.90;;;;;;5041336;28;1976;-67
2023/03/08 06:30:38;;;;;;;;;;;22.00;53.80;;;;;;5041674;28;823;-66
2023/03/08 06:33:04;;;;;;;;;;;22.10;53.80;;;;;;5042359;28;1282;-67
2023/03/08 06:35:29;;;;;;;;;;;22.10;53.80;;;;;;5040797;28;966;-67
2023/03/08 06:37:55;;;;;;;;;;;22.10;53.80;;;;;;5044015;28;1393;-67
2023/03/08 06:40:20;;;;;;;;;;;22.10;53.80;;;;;;5042633;28;1349;-67
2023/03/08 06:42:46;;;;;;;;;;;22.10;53.80;;;;;;5039319;28;1366;-67
2023/03/08 06:45:11;;;;;;;;;;;22.10;53.80;;;;;;5041627;28;836;-68
2023/03/08 06:47:36;;;;;;;;;;;22.10;53.80;;;;;;5041253;28;1969;-68
2023/03/08 06:50:02;;;;;;;;;;;22.10;53.90;;;;;;5040011;28;966;-67
2023/03/08 06:52:33;;;;;;;;;;;22.00;53.90;;;;;;5041119;28;1267;-69
2023/03/08 06:54:59;;;;;;;;;;;22.00;54.00;;;;;;5037420;28;821;-69
2023/03/08 06:57:24;;;;;;;;;;;22.00;54.00;;;;;;5040329;28;1172;-70
2023/03/08 06:59:50;;;;;;;;;;;22.00;54.10;;;;;;5039886;28;849;-67
2023/03/08 07:02:15;;;;;;;;;;;21.90;54.20;;;;;;5040463;28;1352;-69
2023/03/08 07:04:41;;;;;;;;;;;21.90;54.30;;;;;;5043633;28;925;-70
2023/03/08 07:07:06;;;;;;;;;;;21.80;54.40;;;;;;5038357;28;1906;-70
2023/03/08 07:09:32;;;;;;;;;;;21.80;54.40;;;;;;5043209;28;904;-70
2023/03/08 07:11:57;;;;;;;;;;;21.80;54.60;;;;;;5038801;28;1347;-70
2023/03/08 07:14:23;;;;;;;;;;;21.80;54.70;;;;;;5042692;28;1447;-69
2023/03/08 07:16:48;;;;;;;;;;;21.70;54.80;;;;;;5040759;28;893;-68
2023/03/08 07:19:14;;;;;;;;;;;21.60;54.90;;;;;;5038322;28;1313;-69
2023/03/08 07:21:43;;;;;;;;;;;21.60;55.00;;;;;;5034170;28;1724;-69
2023/03/08 07:24:09;;;;;;;;;;;21.60;55.10;;;;;;5039879;28;824;-72
2023/03/08 07:26:34;;;;;;;;;;;21.60;55.20;;;;;;5047674;28;1906;-69
2023/03/08 07:29:00;;;;;;;;;;;21.50;55.20;;;;;;5041112;28;810;-69
2023/03/08 07:31:27;;;;;;;;;;;21.50;55.30;;;;;;5040062;28;1267;-68
2023/03/08 07:33:53;;;;;;;;;;;21.50;55.40;;;;;;5041006;28;922;-69
2023/03/08 07:36:18;;;;;;;;;;;21.40;55.40;;;;;;5042171;28;952;-70
2023/03/08 07:38:45;;;;;;;;;;;21.40;55.50;;;;;;5041711;28;1038;-71
2023/03/08 07:41:11;;;;;;;;;;;21.40;55.50;;;;;;5040190;28;906;-69
2023/03/08 07:43:36;;;;;;;;;;;21.30;55.60;;;;;;5037204;28;1389;-68
2023/03/08 07:46:03;;;;;;;;;;;21.30;55.60;;;;;;5041704;28;871;-69
2023/03/08 07:48:28;;;;;;;;;;;21.30;55.70;;;;;;5040598;28;1961;-68
2023/03/08 07:50:54;;;;;;;;;;;21.20;55.70;;;;;;5037179;28;1231;-69
2023/03/08 07:53:20;;;;;;;;;;;21.20;55.80;;;;;;5038834;28;1251;-69
2023/03/08 07:55:45;;;;;;;;;;;21.20;55.90;;;;;;5036904;28;976;-68
2023/03/08 07:58:10;;;;;;;;;;;21.10;55.90;;;;;;5039514;28;851;-69
2023/03/08 08:00:36;;;;;;;;;;;21.10;56.00;;;;;;5039620;28;2154;-68
2023/03/08 08:03:01;;;;;;;;;;;21.10;56.00;;;;;;5038477;28;2257;-68
2023/03/08 08:05:27;;;;;;;;;;;21.00;56.00;;;;;;5039883;28;1384;-68
2023/03/08 08:07:52;;;;;;;;;;;21.00;56.10;;;;;;5039506;28;1968;-68
2023/03/08 08:10:18;;;;;;;;;;;21.00;56.20;;;;;;5040419;28;912;-68
2023/03/08 08:12:43;;;;;;;;;;;20.90;56.20;;;;;;5038950;28;1314;-68
2023/03/08 08:15:09;;;;;;;;;;;20.90;56.30;;;;;;5037671;28;824;-68
2023/03/08 08:17:34;;;;;;;;;;;20.90;56.40;;;;;;5040406;28;995;-68
2023/03/08 08:20:00;;;;;;;;;;;20.90;56.40;;;;;;5038632;28;1937;-68
2023/03/08 08:22:25;;;;;;;;;;;20.80;56.40;;;;;;5036651;28;1394;-68
2023/03/08 08:24:51;;;;;;;;;;;20.80;56.50;;;;;;5041939;28;1624;-68
2023/03/08 08:27:16;;;;;;;;;;;20.80;56.60;;;;;;5041030;28;1898;-68
2023/03/08 08:29:45;;;;;;;;;;;20.70;57.20;;;;;;5037419;28;849;-68
2023/03/08 08:32:10;;;;;;;;;;;20.80;56.70;;;;;;5039257;28;1247;-69
2023/03/08 08:34:36;;;;;;;;;;;20.70;56.70;;;;;;5038700;28;817;-69
2023/03/08 08:37:01;;;;;;;;;;;20.70;56.70;;;;;;5037189;28;843;-69
2023/03/08 08:39:27;;;;;;;;;;;20.70;56.80;;;;;;5039470;28;1358;-69
2023/03/08 08:41:52;;;;;;;;;;;20.70;56.80;;;;;;5038775;28;1324;-69
2023/03/08 08:44:17;;;;;;;;;;;20.70;56.80;;;;;;5037903;28;851;-69
2023/03/08 08:46:43;;;;;;;;;;;20.60;56.80;;;;;;5040900;28;1886;-69
2023/03/08 08:49:09;;;;;;;;;;;20.70;56.80;;;;;;5042309;28;821;-69
2023/03/08 08:51:34;;;;;;;;;;;20.70;56.90;;;;;;5040122;28;1245;-69
2023/03/08 08:53:59;;;;;;;;;;;20.60;57.40;;;;;;5037777;28;2138;-69
2023/03/08 08:56:25;;;;;;;;;;;20.60;56.90;;;;;;5034583;28;1458;-69
2023/03/08 08:58:51;;;;;;;;;;;20.60;56.90;;;;;;5038658;28;1210;-69
2023/03/08 09:01:17;;;;;;;;;;;20.60;56.90;;;;;;5041155;28;859;-69
2023/03/08 09:03:43;;;;;;;;;;;20.60;56.90;;;;;;5038809;28;1322;-68
2023/03/08 09:06:09;;;;;;;;;;;20.60;56.90;;;;;;5036751;28;884;-69
2023/03/08 09:08:34;;;;;;;;;;;20.60;57.00;;;;;;5038973;28;924;-68
2023/03/08 09:11:03;;;;;;;;;;;20.50;57.00;;;;;;5037505;28;1191;-69
2023/03/08 09:13:29;;;;;;;;;;;20.50;57.50;;;;;;5037341;28;1237;-69
2023/03/08 09:15:54;;;;;;;;;;;20.50;57.00;;;;;;5038916;28;873;-68
2023/03/08 09:18:20;;;;;;;;;;;20.50;57.00;;;;;;5040987;28;1066;-69
2023/03/08 09:20:45;;;;;;;;;;;20.50;57.00;;;;;;5041086;28;1030;-69
2023/03/08 09:23:11;;;;;;;;;;;20.50;57.10;;;;;;5040767;28;1215;-69
2023/03/08 09:25:36;;;;;;;;;;;20.50;57.10;;;;;;5044453;28;916;-69
2023/03/08 09:28:02;;;;;;;;;;;20.50;57.10;;;;;;5040741;28;1967;-69
2023/03/08 09:30:28;;;;;;;;;;;20.40;57.10;;;;;;5038541;28;948;-68
2023/03/08 09:32:53;;;;;;;;;;;20.40;57.10;;;;;;5041723;28;1263;-69
2023/03/08 09:35:19;;;;;;;;;;;20.40;57.20;;;;;;5044365;28;1018;-68
2023/03/08 09:37:44;;;;;;;;;;;20.40;57.20;;;;;;5045064;28;1072;-68
2023/03/08 09:40:16;;;;;;;;;;;20.40;57.20;;;;;;5040931;28;1094;-69
2023/03/08 09:42:42;;;;;;;;;;;20.30;57.20;;;;;;5047179;28;1269;-69
2023/03/08 09:45:16;;;;;;;;;;;20.30;57.30;;;;;;5041411;28;892;-69
2023/03/08 09:47:50;;;;;;;;;;;20.30;57.30;;;;;;5042960;28;1973;-69
2023/03/08 09:50:18;;;;;;;;;;;20.30;57.30;;;;;;5039445;28;2289;-69
2023/03/08 09:52:51;;;;;;;;;;;20.30;57.40;;;;;;5043787;28;1241;-69
2023/03/08 09:55:29;;;;;;;;;;;20.30;57.50;;;;;;5041337;28;868;-68
2023/03/08 09:57:55;;;;;;;;;;;20.30;57.50;;;;;;5044554;28;886;-68
2023/03/08 10:00:30;;;;;;;;;;;20.20;57.50;;;;;;5041769;28;832;-69
2023/03/08 10:03:03;;;;;;;;;;;20.20;57.50;;;;;;5041307;28;1250;-69
2023/03/08 10:05:31;;;;;;;;;;;20.20;57.50;;;;;;5042574;28;1018;-69
2023/03/08 10:08:15;;;;;;;;;;;20.20;57.60;;;;;;5042890;28;1967;-68
2023/03/08 10:10:52;;;;;;;;;;;20.20;57.60;;;;;;5043789;28;857;-69
2023/03/08 10:13:22;;;;;;;;;;;20.10;57.60;;;;;;5043612;28;1252;-69
2023/03/08 10:15:49;;;;;;;;;;;20.10;57.70;;;;;;5043592;28;896;-69
2023/03/08 10:18:17;;;;;;;;;;;20.10;57.70;;;;;;5042435;28;835;-69
2023/03/08 10:20:42;;;;;;;;;;;20.00;57.70;;;;;;5041494;28;843;-69
2023/03/08 10:23:15;;;;;;;;;;;20.00;57.80;;;;;;5042548;28;1237;-69
2023/03/08 10:25:40;;;;;;;;;;;20.00;57.80;;;;;;5038168;28;840;-69
2023/03/08 10:28:16;;;;;;;;;;;20.00;57.90;;;;;;5040858;28;1961;-69
2023/03/08 10:30:44;;;;;;;;;;;20.00;57.90;;;;;;5042957;28;899;-69
2023/03/08 10:33:10;;;;;;;;;;;19.90;58.00;;;;;;5041836;28;1368;-69
2023/03/08 10:35:54;;;;;;;;;;;20.00;58.10;;;;;;5042771;28;832;-69
2023/03/08 10:38:20;;;;;;;;;;;19.90;58.10;;;;;;5041160;28;1017;-70
2023/03/08 10:40:45;;;;;;;;;;;19.90;58.10;;;;;;5040982;28;1342;-68
2023/03/08 10:43:19;;;;;;;;;;;19.90;58.20;;;;;;5042567;28;1237;-69
2023/03/08 10:45:45;;;;;;;;;;;19.80;58.20;;;;;;5041204;28;905;-69
2023/03/08 10:48:18;;;;;;;;;;;19.80;58.20;;;;;;5036913;28;1965;-68
2023/03/08 10:50:44;;;;;;;;;;;19.80;58.90;;;;;;5043361;28;921;-68
2023/03/08 10:53:10;;;;;;;;;;;19.80;58.30;;;;;;5038288;28;1260;-69
2023/03/08 10:55:39;;;;;;;;;;;19.80;58.40;;;;;;5040652;28;864;-69
2023/03/08 10:58:20;;;;;;;;;;;19.70;58.40;;;;;;5049264;28;908;-69
2023/03/08 11:00:50;;;;;;;;;;;19.70;58.40;;;;;;5036493;28;911;-68
2023/03/08 11:03:17;;;;;;;;;;;19.70;58.40;;;;;;5050557;28;1262;-68
2023/03/08 11:06:02;;;;;;;;;;;19.70;58.50;;;;;;5041198;28;908;-69
2023/03/08 11:08:32;;;;;;;;;;;19.70;58.50;;;;;;5041605;28;2293;-68
2023/03/08 11:11:01;;;;;;;;;;;19.70;58.50;;;;;;5040680;28;912;-69
2023/03/08 11:13:30;;;;;;;;;;;19.60;58.50;;;;;;5039347;28;1298;-69
2023/03/08 11:16:15;;;;;;;;;;;19.60;58.60;;;;;;5024744;28;1305;-69
2023/03/08 11:18:40;;;;;;;;;;;19.60;58.60;;;;;;5040717;28;991;-69
2023/03/08 11:21:09;;;;;;;;;;;19.60;58.70;;;;;;5042504;28;886;-69
2023/03/08 11:23:57;;;;;;;;;;;19.60;58.70;;;;;;5041289;28;1229;-69
2023/03/08 11:26:35;;;;;;;;;;;19.60;58.70;;;;;;5043273;28;1890;-69
2023/03/08 11:29:11;;;;;;;;;;;19.50;58.70;;;;;;5043115;28;879;-69
2023/03/08 11:31:55;;;;;;;;;;;19.50;58.80;;;;;;5040353;28;1330;-69
2023/03/08 11:34:20;;;;;;;;;;;19.50;58.80;;;;;;5039843;28;859;-69
2023/03/08 11:36:55;;;;;;;;;;;19.50;58.90;;;;;;5042564;28;1405;-69
2023/03/08 11:39:34;;;;;;;;;;;19.50;58.90;;;;;;5043255;28;1255;-69
2023/03/08 11:42:15;;;;;;;;;;;19.50;58.90;;;;;;5038901;28;1363;-69
2023/03/08 11:44:44;;;;;;;;;;;19.40;58.90;;;;;;5042433;28;828;-69
2023/03/08 11:47:25;;;;;;;;;;;19.40;58.90;;;;;;5040195;28;1902;-69
2023/03/08 11:49:58;;;;;;;;;;;19.40;59.00;;;;;;5039904;28;850;-69
2023/03/08 11:52:23;;;;;;;;;;;19.40;59.10;;;;;;5040058;28;1316;-69
2023/03/08 11:54:55;;;;;;;;;;;19.40;59.10;;;;;;5041125;28;1247;-69
2023/03/08 11:57:20;;;;;;;;;;;19.40;59.10;;;;;;5039235;28;812;-69
2023/03/08 11:59:47;;;;;;;;;;;19.30;59.10;;;;;;5038300;28;865;-69
2023/03/08 12:02:15;;;;;;;;;;;19.30;59.10;;;;;;5041986;28;1371;-69
2023/03/08 12:05:00;;;;;;;;;;;19.30;59.10;;;;;;5037727;28;883;-69
2023/03/08 12:07:46;;;;;;;;;;;19.30;59.20;;;;;;5041617;28;1898;-69
2023/03/08 12:10:38;;;;;;;;;;;19.30;59.20;;;;;;5038484;28;957;-69
2023/03/08 12:13:03;;;;;;;;;;;19.30;59.20;;;;;;5044009;28;1255;-69
2023/03/08 12:15:34;;;;;;;;;;;19.30;59.30;;;;;;5041644;28;808;-69
2023/03/08 12:18:05;;;;;;;;;;;19.30;59.30;;;;;;5040499;28;870;-68
2023/03/08 12:20:33;;;;;;;;;;;19.20;59.30;;;;;;5036326;28;816;-69
2023/03/08 12:22:59;;;;;;;;;;;19.20;59.30;;;;;;5037993;28;2297;-69
2023/03/08 12:25:25;;;;;;;;;;;19.20;59.30;;;;;;5038654;28;2143;-69
2023/03/08 12:27:55;;;;;;;;;;;19.20;59.40;;;;;;5040335;28;1965;-69
2023/03/08 12:30:23;;;;;;;;;;;19.20;59.40;;;;;;5038892;28;1923;-68
2023/03/08 12:32:48;;;;;;;;;;;19.20;59.40;;;;;;5038124;28;1398;-70
2023/03/08 12:35:30;;;;;;;;;;;19.20;59.40;;;;;;5039902;28;1494;-70
2023/03/08 12:38:16;;;;;;;;;;;19.20;59.50;;;;;;5036532;28;1368;-69
2023/03/08 12:40:43;;;;;;;;;;;19.10;59.40;;;;;;5034946;28;1303;-70
2023/03/08 12:43:12;;;;;;;;;;;19.10;59.40;;;;;;5037360;28;1335;-70
2023/03/08 12:45:58;;;;;;;;;;;19.10;59.50;;;;;;5040213;28;859;-70
2023/03/08 12:48:26;;;;;;;;;;;19.10;59.50;;;;;;5038749;28;1934;-70
2023/03/08 12:50:52;;;;;;;;;;;19.10;59.50;;;;;;5041163;28;1085;-69
2023/03/08 12:53:22;;;;;;;;;;;19.10;59.50;;;;;;5039874;28;1251;-69
2023/03/08 12:55:57;;;;;;;;;;;19.10;59.50;;;;;;5038132;28;920;-70
2023/03/08 12:58:23;;;;;;;;;;;19.10;59.60;;;;;;5021692;28;849;-68
2023/03/08 13:00:55;;;;;;;;;;;19.10;59.60;;;;;;5037035;28;837;-68
2023/03/08 13:03:21;;;;;;;;;;;19.10;59.60;;;;;;5039874;28;1320;-68
2023/03/08 13:05:48;;;;;;;;;;;19.10;59.60;;;;;;5038541;28;824;-68
2023/03/08 13:08:15;;;;;;;;;;;19.10;59.60;;;;;;5038134;28;1989;-69
2023/03/08 13:11:01;;;;;;;;;;;19.00;59.60;;;;;;5040306;28;908;-70
2023/03/08 13:13:45;;;;;;;;;;;19.10;59.60;;;;;;5039490;28;1256;-68
2023/03/08 13:16:13;;;;;;;;;;;19.10;60.30;;;;;;5037937;28;1223;-68
2023/03/08 13:18:39;;;;;;;;;;;19.00;59.60;;;;;;5038692;28;1859;-69
2023/03/08 13:21:17;;;;;;;;;;;19.00;59.60;;;;;;5034997;28;900;-69
2023/03/08 13:23:46;;;;;;;;;;;19.00;59.60;;;;;;5025426;28;1444;-69
2023/03/08 13:26:19;;;;;;;;;;;19.00;59.60;;;;;;5038066;28;864;-69
2023/03/08 13:28:45;;;;;;;;;;;19.10;59.60;;;;;;5036222;28;935;-69
2023/03/08 13:31:18;;;;;;;;;;;19.00;59.60;;;;;;5034588;28;793;-69
2023/03/08 13:33:47;;;;;;;;;;;19.00;59.60;;;;;;5035223;28;2130;-69
2023/03/08 13:36:17;;;;;;;;;;;19.00;59.50;;;;;;5037576;28;1322;-69
2023/03/08 13:38:43;;;;;;;;;;;19.00;59.50;;;;;;5040295;28;1164;-69
2023/03/08 13:41:08;;;;;;;;;;;19.00;59.50;;;;;;5045572;28;2466;-69
2023/03/08 13:43:34;;;;;;;;;;;19.00;59.50;;;;;;5038125;28;1485;-69
2023/03/08 13:46:04;;;;;;;;;;;19.00;59.50;;;;;;5039876;28;1398;-69
2023/03/08 13:48:33;;;;;;;;;;;19.00;59.50;;;;;;5038405;28;2018;-69
2023/03/08 13:50:59;;;;;;;;;;;19.10;59.50;;;;;;5036118;28;973;-69
2023/03/08 13:53:25;;;;;;;;;;;19.00;59.40;;;;;;5035773;28;1391;-69
2023/03/08 13:55:52;;;;;;;;;;;19.00;59.40;;;;;;5039934;28;816;-69
2023/03/08 13:58:17;;;;;;;;;;;19.00;59.40;;;;;;5040008;28;920;-69
2023/03/08 14:00:43;;;;;;;;;;;19.00;59.40;;;;;;5034611;28;867;-69
2023/03/08 14:03:17;;;;;;;;;;;19.00;59.40;;;;;;5039598;28;1421;-69
2023/03/08 14:05:42;;;;;;;;;;;19.00;59.40;;;;;;5039681;28;1221;-69
2023/03/08 14:08:18;;;;;;;;;;;19.00;59.40;;;;;;5049601;28;1953;-69
2023/03/08 14:10:44;;;;;;;;;;;19.10;59.40;;;;;;5048791;28;871;-69
2023/03/08 14:13:26;;;;;;;;;;;19.10;59.40;;;;;;5043348;28;1384;-69
2023/03/08 14:15:52;;;;;;;;;;;19.00;59.40;;;;;;5038881;28;878;-69
2023/03/08 14:18:19;;;;;;;;;;;19.00;59.40;;;;;;5038487;28;1066;-69
2023/03/08 14:20:45;;;;;;;;;;;19.00;59.40;;;;;;5043136;28;1073;-69
2023/03/08 14:23:18;;;;;;;;;;;19.00;59.40;;;;;;5050594;28;1270;-69
2023/03/08 14:25:44;;;;;;;;;;;19.00;59.40;;;;;;5040345;28;1581;-69
2023/03/08 14:28:31;;;;;;;;;;;19.00;59.40;;;;;;5040445;28;2332;-69
2023/03/08 14:30:57;;;;;;;;;;;19.00;60.00;;;;;;5039425;28;1200;-69
2023/03/08 14:33:24;;;;;;;;;;;19.00;59.40;;;;;;5038111;28;1270;-69
2023/03/08 14:35:56;;;;;;;;;;;19.00;59.40;;;;;;5040011;28;1305;-69
2023/03/08 14:38:29;;;;;;;;;;;19.00;59.40;;;;;;5041645;28;1904;-69